Time;durP1;ratioP1;P1;durP2;ratioP2;P2;SDS_P1;SDS_P2;PMS_P1;PMS_P2;Temp;Humidity;BMP_temperature;BMP_pressure;BME280_temperature;BME280_humidity;BME280_pressure;Samples;Min_cycle;Max_cycle;Signal;HPM_P1;HPM_P2
2022/01/05 00:00:31;;;;;;;15.55;2.63;;;3.90;99.90;;;;;;5072740;28;20025;-78
2022/01/05 00:02:57;;;;;;;12.55;2.80;;;3.90;99.90;;;;;;5071313;28;20072;-78
2022/01/05 00:05:23;;;;;;;16.50;3.92;;;3.80;99.90;;;;;;5072810;28;20094;-78
2022/01/05 00:07:49;;;;;;;16.60;3.20;;;3.90;99.90;;;;;;5070983;28;20384;-78
2022/01/05 00:10:15;;;;;;;12.98;2.92;;;3.80;99.90;;;;;;5072618;28;20033;-79
2022/01/05 00:12:41;;;;;;;11.18;2.33;;;3.80;99.90;;;;;;5074985;28;20028;-77
2022/01/05 00:15:07;;;;;;;14.93;2.42;;;3.70;99.90;;;;;;5075500;28;20017;-78
2022/01/05 00:17:33;;;;;;;23.45;3.35;;;3.80;99.90;;;;;;5076510;28;20036;-78
2022/01/05 00:19:58;;;;;;;17.80;2.63;;;3.70;99.90;;;;;;5076352;28;20040;-78
2022/01/05 00:22:24;;;;;;;12.10;2.40;;;3.70;99.90;;;;;;5076082;28;20036;-78
2022/01/05 00:24:50;;;;;;;14.80;2.50;;;3.70;99.90;;;;;;5076513;28;20469;-78
2022/01/05 00:27:16;;;;;;;11.00;2.88;;;3.70;99.90;;;;;;5076251;28;20025;-78
2022/01/05 00:29:41;;;;;;;18.15;3.22;;;3.70;99.90;;;;;;5058181;28;20037;-78
2022/01/05 00:32:08;;;;;;;9.20;3.00;;;3.80;99.90;;;;;;5076321;28;20021;-77
2022/01/05 00:34:35;;;;;;;12.00;3.80;;;3.80;99.90;;;;;;5076175;28;20486;-77
2022/01/05 00:37:00;;;;;;;14.90;3.08;;;3.80;99.90;;;;;;5075699;28;20384;-78
2022/01/05 00:39:26;;;;;;;17.15;3.33;;;3.70;99.90;;;;;;5076265;28;20033;-77
2022/01/05 00:41:52;;;;;;;30.25;3.63;;;3.60;99.90;;;;;;5075764;28;20108;-78
2022/01/05 00:44:19;;;;;;;17.48;3.38;;;3.60;99.90;;;;;;5076207;28;20048;-78
2022/01/05 00:46:45;;;;;;;22.98;3.75;;;3.60;99.90;;;;;;5076000;28;20469;-78
2022/01/05 00:49:11;;;;;;;20.65;4.25;;;3.70;99.90;;;;;;5075745;28;20040;-78
2022/01/05 00:51:38;;;;;;;14.30;2.90;;;3.70;99.90;;;;;;5074247;28;20538;-78
2022/01/05 00:54:04;;;;;;;22.48;3.80;;;3.70;99.90;;;;;;5075676;28;20032;-77
2022/01/05 00:56:30;;;;;;;13.05;3.58;;;3.60;99.90;;;;;;5075870;28;20016;-78
2022/01/05 00:58:56;;;;;;;14.77;3.20;;;3.60;99.90;;;;;;5075777;28;20035;-77
2022/01/05 01:01:21;;;;;;;19.75;3.05;;;3.60;99.90;;;;;;5076252;28;20048;-77
2022/01/05 01:03:47;;;;;;;15.10;3.33;;;3.50;99.90;;;;;;5074225;28;20378;-78
2022/01/05 01:06:13;;;;;;;16.33;3.25;;;3.50;99.90;;;;;;5075306;28;20062;-77
2022/01/05 01:08:39;;;;;;;18.90;3.42;;;3.40;99.90;;;;;;5075435;28;20064;-78
2022/01/05 01:11:05;;;;;;;19.35;4.15;;;3.40;99.90;;;;;;5075540;28;20049;-78
2022/01/05 01:13:31;;;;;;;16.33;3.38;;;3.40;99.90;;;;;;5075702;28;20557;-76
2022/01/05 01:15:57;;;;;;;14.40;2.65;;;3.40;99.90;;;;;;5074160;28;20060;-78
2022/01/05 01:18:23;;;;;;;15.82;3.85;;;3.40;99.90;;;;;;5075318;28;20418;-78
2022/01/05 01:20:48;;;;;;;17.30;3.28;;;3.40;99.90;;;;;;5075005;28;20032;-78
2022/01/05 01:23:18;;;;;;;17.67;3.78;;;3.40;99.90;;;;;;5073946;28;20048;-78
2022/01/05 01:25:43;;;;;;;7.40;2.30;;;3.40;99.90;;;;;;5075173;28;20036;-78
2022/01/05 01:28:09;;;;;;;20.45;2.92;;;3.40;99.90;;;;;;5073939;28;20056;-78
2022/01/05 01:30:35;;;;;;;11.52;2.78;;;3.40;99.90;;;;;;5075310;28;20517;-78
2022/01/05 01:33:01;;;;;;;23.20;3.08;;;3.40;99.90;;;;;;5070966;28;20469;-78
2022/01/05 01:35:27;;;;;;;24.75;3.13;;;3.40;99.90;;;;;;5054286;28;20482;-79
2022/01/05 01:37:56;;;;;;;17.08;2.92;;;3.40;99.90;;;;;;5054880;28;20021;-79
2022/01/05 01:40:21;;;;;;;13.27;3.78;;;3.40;99.90;;;;;;5054976;28;20496;-78
2022/01/05 01:42:48;;;;;;;17.80;3.38;;;3.40;99.90;;;;;;5054911;28;20029;-78
2022/01/05 01:45:13;;;;;;;17.83;4.28;;;3.40;99.90;;;;;;5054779;28;20116;-79
2022/01/05 01:47:40;;;;;;;18.45;3.60;;;3.30;99.90;;;;;;5054844;28;20108;-79
2022/01/05 01:50:07;;;;;;;21.48;3.60;;;3.30;99.90;;;;;;5054305;28;20069;-78
2022/01/05 01:52:32;;;;;;;18.88;2.83;;;3.40;99.90;;;;;;5054816;28;20174;-79
2022/01/05 01:54:58;;;;;;;21.73;3.60;;;3.20;99.90;;;;;;5054428;28;20064;-78
2022/01/05 01:57:26;;;;;;;15.85;3.42;;;3.20;99.90;;;;;;5054850;28;20061;-78
2022/01/05 01:59:51;;;;;;;25.17;4.00;;;3.10;99.90;;;;;;5054586;28;20373;-78
2022/01/05 02:02:17;;;;;;;22.25;3.05;;;3.10;99.90;;;;;;5054516;28;20032;-78
2022/01/05 02:04:44;;;;;;;18.42;3.17;;;3.10;99.90;;;;;;5054158;28;20029;-78
2022/01/05 02:07:10;;;;;;;20.88;3.50;;;3.10;99.90;;;;;;5054351;28;20033;-78
2022/01/05 02:09:37;;;;;;;20.13;3.15;;;3.00;99.90;;;;;;5063363;28;20028;-78
2022/01/05 02:12:05;;;;;;;21.65;3.90;;;3.00;99.90;;;;;;5074809;28;20075;-78
2022/01/05 02:14:30;;;;;;;11.15;2.85;;;3.10;99.90;;;;;;5074213;28;20376;-77
2022/01/05 02:16:58;;;;;;;13.25;2.58;;;3.10;99.90;;;;;;5074298;28;20020;-78
2022/01/05 02:19:24;;;;;;;24.98;5.40;;;3.00;99.90;;;;;;5073799;28;20067;-78
2022/01/05 02:21:50;;;;;;;22.88;5.40;;;3.00;99.90;;;;;;5073069;28;20052;-78
2022/01/05 02:24:16;;;;;;;9.43;2.55;;;3.00;99.90;;;;;;5073900;28;20036;-78
2022/01/05 02:26:42;;;;;;;13.73;2.97;;;3.00;99.90;;;;;;5074114;28;20027;-78
2022/01/05 02:29:08;;;;;;;10.27;2.65;;;3.00;99.90;;;;;;5073910;28;20465;-78
2022/01/05 02:31:34;;;;;;;18.10;2.85;;;3.00;99.90;;;;;;5073727;28;20070;-77
2022/01/05 02:34:00;;;;;;;11.68;2.03;;;3.00;99.90;;;;;;5073639;28;20031;-78
2022/01/05 02:36:26;;;;;;;18.27;3.47;;;3.00;99.90;;;;;;5073670;28;20032;-78
2022/01/05 02:38:52;;;;;;;20.55;3.00;;;3.00;99.90;;;;;;5074046;28;20024;-79
2022/01/05 02:41:19;;;;;;;26.25;3.28;;;3.00;99.90;;;;;;5073769;28;20033;-77
2022/01/05 02:43:46;;;;;;;16.88;2.42;;;2.90;99.90;;;;;;5073541;28;20040;-78
2022/01/05 02:46:14;;;;;;;17.55;3.30;;;3.00;99.90;;;;;;5073315;28;20024;-77
2022/01/05 02:48:40;;;;;;;13.35;2.30;;;3.00;99.90;;;;;;5073839;28;20024;-78
2022/01/05 02:51:07;;;;;;;23.63;3.83;;;2.90;99.90;;;;;;5073556;28;20028;-78
2022/01/05 02:53:34;;;;;;;18.35;3.33;;;2.90;99.90;;;;;;5073780;28;20449;-79
2022/01/05 02:56:00;;;;;;;13.68;2.47;;;2.90;99.90;;;;;;5073476;28;20024;-78
2022/01/05 02:58:26;;;;;;;20.30;3.20;;;2.90;99.90;;;;;;5073443;28;20047;-78
2022/01/05 03:00:51;;;;;;;11.77;2.53;;;2.90;99.90;;;;;;5073221;28;20024;-79
2022/01/05 03:03:17;;;;;;;26.23;3.25;;;2.80;99.90;;;;;;5073384;28;20044;-78
2022/01/05 03:05:43;;;;;;;18.55;2.88;;;2.90;99.90;;;;;;5073289;28;20020;-78
2022/01/05 03:08:09;;;;;;;20.60;3.78;;;2.90;99.90;;;;;;5073409;28;20074;-79
2022/01/05 03:10:35;;;;;;;27.42;3.53;;;2.90;99.90;;;;;;5071910;28;20028;-78
2022/01/05 03:13:00;;;;;;;20.90;2.65;;;2.90;99.90;;;;;;5072964;28;20370;-77
2022/01/05 03:15:26;;;;;;;26.75;3.33;;;2.90;99.90;;;;;;5072918;28;20063;-78
2022/01/05 03:17:52;;;;;;;19.40;2.78;;;2.90;99.90;;;;;;5073294;28;20040;-78
2022/01/05 03:20:19;;;;;;;22.40;3.33;;;2.80;99.90;;;;;;5072876;28;20047;-78
2022/01/05 03:22:45;;;;;;;23.70;3.05;;;2.90;99.90;;;;;;5073046;28;20040;-78
2022/01/05 03:25:16;;;;;;;16.30;3.08;;;2.90;99.90;;;;;;5073341;28;20073;-78
2022/01/05 03:27:47;;;;;;;20.65;3.00;;;2.90;99.90;;;;;;5052965;28;20481;-77
2022/01/05 03:30:16;;;;;;;24.33;4.72;;;2.80;99.90;;;;;;5052706;28;20112;-77
2022/01/05 03:35:17;;;;;;;21.67;4.35;;;2.90;99.90;;;;;;5052922;28;20029;-78
2022/01/05 03:37:42;;;;;;;19.52;4.00;;;2.90;99.90;;;;;;5052873;28;20079;-79
2022/01/05 03:40:09;;;;;;;20.52;3.25;;;2.90;99.90;;;;;;5052833;28;20047;-78
2022/01/05 03:42:34;;;;;;;23.30;4.38;;;3.00;99.90;;;;;;5052655;28;20021;-79
2022/01/05 03:45:00;;;;;;;18.77;3.63;;;2.90;99.90;;;;;;5052554;28;20542;-77
2022/01/05 03:47:26;;;;;;;17.90;5.40;;;3.00;99.90;;;;;;5052331;28;20124;-78
2022/01/05 03:49:51;;;;;;;31.52;4.05;;;2.90;99.90;;;;;;5052935;28;20025;-78
2022/01/05 03:52:17;;;;;;;14.50;3.25;;;2.90;99.90;;;;;;5052677;28;20108;-78
2022/01/05 03:54:43;;;;;;;16.50;3.17;;;2.90;99.90;;;;;;5052630;28;20393;-78
2022/01/05 03:57:08;;;;;;;13.07;3.45;;;2.90;99.90;;;;;;5052486;28;20021;-76
2022/01/05 03:59:34;;;;;;;20.92;4.03;;;2.90;99.90;;;;;;5052484;28;20043;-78
2022/01/05 04:02:00;;;;;;;19.35;3.85;;;2.90;99.90;;;;;;5052715;28;20025;-78
2022/01/05 04:04:25;;;;;;;25.92;3.70;;;2.90;99.90;;;;;;5052713;28;20178;-79
2022/01/05 04:06:51;;;;;;;25.85;3.58;;;2.90;99.90;;;;;;5052529;28;20033;-79
2022/01/05 04:09:17;;;;;;;26.02;4.05;;;2.90;99.90;;;;;;5059974;28;20115;-78
2022/01/05 04:11:42;;;;;;;20.25;3.33;;;2.90;99.90;;;;;;5072632;28;20035;-79
2022/01/05 04:14:08;;;;;;;26.75;4.00;;;2.90;99.90;;;;;;5072173;28;20025;-79
2022/01/05 04:16:34;;;;;;;20.58;3.55;;;3.00;99.90;;;;;;5072474;28;20024;-79
2022/01/05 04:18:59;;;;;;;22.70;4.63;;;2.90;99.90;;;;;;5072470;28;20123;-77
2022/01/05 04:21:25;;;;;;;22.70;3.65;;;2.90;99.90;;;;;;5072483;28;20033;-79
2022/01/05 04:23:52;;;;;;;28.90;5.03;;;2.80;99.90;;;;;;5071030;28;20047;-78
2022/01/05 04:26:18;;;;;;;24.00;5.40;;;2.80;99.90;;;;;;5072411;28;20017;-78
2022/01/05 04:28:44;;;;;;;25.20;4.95;;;2.80;99.90;;;;;;5072217;28;20495;-78
2022/01/05 04:31:10;;;;;;;21.90;4.00;;;2.80;99.90;;;;;;5072342;28;20040;-78
2022/01/05 04:33:35;;;;;;;16.52;4.03;;;2.80;99.90;;;;;;5070846;28;20025;-78
2022/01/05 04:36:01;;;;;;;12.18;3.97;;;2.80;99.90;;;;;;5072387;28;20432;-79
2022/01/05 04:38:27;;;;;;;27.60;4.90;;;2.80;99.90;;;;;;5072225;28;20017;-77
2022/01/05 04:40:54;;;;;;;25.08;3.78;;;2.70;99.90;;;;;;5072441;28;20108;-77
2022/01/05 04:43:20;;;;;;;25.73;4.93;;;2.70;99.90;;;;;;5071906;28;20040;-77
2022/01/05 04:45:46;;;;;;;24.77;3.90;;;2.70;99.90;;;;;;5072417;28;20538;-78
2022/01/05 04:48:11;;;;;;;22.23;4.40;;;2.60;99.90;;;;;;5071853;28;20070;-77
2022/01/05 04:50:37;;;;;;;15.27;3.15;;;2.60;99.90;;;;;;5072414;28;20335;-77
2022/01/05 04:53:03;;;;;;;17.00;3.15;;;2.60;99.90;;;;;;5072095;28;20393;-78
2022/01/05 04:55:28;;;;;;;22.15;4.13;;;2.60;99.90;;;;;;5072286;28;20381;-76
2022/01/05 04:57:54;;;;;;;24.17;5.03;;;2.60;99.90;;;;;;5072998;28;20036;-78
2022/01/05 05:00:20;;;;;;;17.55;3.83;;;2.70;99.90;;;;;;5075642;28;20028;-78
2022/01/05 05:02:48;;;;;;;21.25;3.67;;;2.60;99.90;;;;;;5075419;28;20072;-78
2022/01/05 05:05:14;;;;;;;12.75;3.50;;;2.60;99.90;;;;;;5075558;28;20013;-78
2022/01/05 05:07:40;;;;;;;21.55;3.95;;;2.60;99.90;;;;;;5075221;28;20051;-79
2022/01/05 05:10:06;;;;;;;16.42;3.50;;;2.60;99.90;;;;;;5075497;28;20021;-79
2022/01/05 05:12:32;;;;;;;14.05;3.40;;;2.60;99.90;;;;;;5075197;28;20035;-78
2022/01/05 05:14:57;;;;;;;17.95;3.22;;;2.50;99.90;;;;;;5075433;28;20086;-78
2022/01/05 05:17:23;;;;;;;19.48;3.90;;;2.50;99.90;;;;;;5075583;28;20029;-78
2022/01/05 05:19:49;;;;;;;25.75;3.95;;;2.50;99.90;;;;;;5075062;28;20085;-78
2022/01/05 05:22:15;;;;;;;36.92;4.35;;;2.50;99.90;;;;;;5075224;28;20035;-77
2022/01/05 05:24:41;;;;;;;20.17;4.18;;;2.60;99.90;;;;;;5075094;28;20493;-78
2022/01/05 05:27:06;;;;;;;22.17;4.15;;;2.70;99.90;;;;;;5075062;28;20032;-78
2022/01/05 05:29:32;;;;;;;19.35;3.45;;;2.60;99.90;;;;;;5075146;28;20028;-77
2022/01/05 05:31:58;;;;;;;22.23;3.55;;;2.60;99.90;;;;;;5075215;28;20039;-78
2022/01/05 05:34:25;;;;;;;23.92;4.50;;;2.60;99.90;;;;;;5075434;28;20021;-77
2022/01/05 05:36:50;;;;;;;28.10;4.05;;;2.60;99.90;;;;;;5075137;28;20032;-78
2022/01/05 05:39:16;;;;;;;25.58;3.78;;;2.60;99.90;;;;;;5075097;28;20362;-77
2022/01/05 05:41:42;;;;;;;20.90;4.13;;;2.60;99.90;;;;;;5074691;28;20028;-77
2022/01/05 05:44:08;;;;;;;23.85;3.55;;;2.70;99.90;;;;;;5074882;28;20405;-78
2022/01/05 05:46:34;;;;;;;19.27;3.90;;;2.70;99.90;;;;;;5074986;28;20019;-79
2022/01/05 05:49:00;;;;;;;21.23;4.80;;;2.70;99.90;;;;;;5074610;28;20032;-78
2022/01/05 05:51:25;;;;;;;22.20;3.60;;;2.70;99.90;;;;;;5074796;28;20025;-78
2022/01/05 05:53:51;;;;;;;16.45;3.33;;;2.70;99.90;;;;;;5074913;28;20020;-78
2022/01/05 05:56:17;;;;;;;16.55;2.65;;;2.80;99.90;;;;;;5074612;28;20380;-78
2022/01/05 05:58:42;;;;;;;22.02;3.60;;;2.80;99.90;;;;;;5074531;28;20079;-79
2022/01/05 06:01:08;;;;;;;13.70;4.00;;;2.80;99.90;;;;;;5074582;28;20044;-78
2022/01/05 06:03:34;;;;;;;22.38;4.53;;;2.90;99.90;;;;;;5074547;28;20041;-78
2022/01/05 06:06:00;;;;;;;19.95;3.95;;;2.90;99.90;;;;;;5074417;28;20025;-78
2022/01/05 06:08:25;;;;;;;21.30;4.22;;;2.90;99.90;;;;;;5074494;28;20209;-76
2022/01/05 06:10:51;;;;;;;20.50;3.10;;;3.00;99.90;;;;;;5073290;28;20380;-78
2022/01/05 06:13:17;;;;;;;30.42;4.65;;;3.00;99.90;;;;;;5074416;28;20385;-76
2022/01/05 06:15:42;;;;;;;17.05;3.38;;;3.10;99.90;;;;;;5074311;28;20112;-78
2022/01/05 06:18:08;;;;;;;20.05;3.75;;;3.20;99.90;;;;;;5074301;28;20062;-78
2022/01/05 06:20:34;;;;;;;24.00;4.38;;;3.20;99.90;;;;;;5074160;28;20531;-79
2022/01/05 06:23:00;;;;;;;19.02;4.07;;;3.10;99.90;;;;;;5074239;28;20048;-77
2022/01/05 06:25:25;;;;;;;23.85;3.88;;;3.20;99.90;;;;;;5073842;28;20393;-78
2022/01/05 06:27:51;;;;;;;23.52;3.58;;;3.20;99.90;;;;;;5074186;28;20028;-78
2022/01/05 06:30:17;;;;;;;22.73;4.22;;;3.30;99.90;;;;;;5073876;28;20094;-78
2022/01/05 06:32:45;;;;;;;26.48;4.15;;;3.40;99.90;;;;;;5073971;28;20031;-79
2022/01/05 06:35:12;;;;;;;16.65;3.65;;;3.40;99.90;;;;;;5073823;28;20044;-79
2022/01/05 06:37:37;;;;;;;22.10;4.43;;;3.40;99.90;;;;;;5073848;28;20070;-79
2022/01/05 06:40:03;;;;;;;18.48;3.55;;;3.50;99.90;;;;;;5073522;28;20040;-79
2022/01/05 06:42:29;;;;;;;15.73;3.67;;;3.50;99.90;;;;;;5073687;28;20039;-78
2022/01/05 06:44:55;;;;;;;22.90;4.00;;;3.40;99.90;;;;;;5067249;28;20437;-79
2022/01/05 06:47:21;;;;;;;16.52;4.00;;;3.40;99.90;;;;;;5052805;28;20429;-79
2022/01/05 06:49:46;;;;;;;22.88;3.75;;;3.40;99.90;;;;;;5053733;28;20017;-78
2022/01/05 06:52:12;;;;;;;13.73;3.80;;;3.50;99.90;;;;;;5053782;28;20037;-78
2022/01/05 06:54:41;;;;;;;23.42;4.97;;;3.40;99.90;;;;;;5053238;28;20110;-79
2022/01/05 06:57:08;;;;;;;36.75;8.63;;;3.40;99.90;;;;;;5052294;28;20025;-78
2022/01/05 06:59:35;;;;;;;26.88;6.03;;;3.50;99.90;;;;;;5052283;28;20067;-78
2022/01/05 07:02:01;;;;;;;28.63;8.18;;;3.50;99.90;;;;;;5052076;28;20083;-79
2022/01/05 07:04:27;;;;;;;21.02;3.58;;;3.70;99.90;;;;;;5053462;28;20470;-78
2022/01/05 07:06:52;;;;;;;22.35;2.92;;;3.70;99.90;;;;;;5052200;28;20025;-78
2022/01/05 07:09:18;;;;;;;29.48;6.57;;;3.80;99.90;;;;;;5059447;28;20086;-78
2022/01/05 07:11:45;;;;;;;19.73;3.85;;;3.90;99.90;;;;;;5071877;28;20017;-78
2022/01/05 07:14:11;;;;;;;24.95;5.30;;;3.80;99.90;;;;;;5073404;28;20473;-77
2022/01/05 07:16:37;;;;;;;10.77;3.03;;;3.80;99.90;;;;;;5071810;28;20043;-78
2022/01/05 07:19:02;;;;;;;32.10;4.68;;;3.80;99.90;;;;;;5072805;28;20103;-77
2022/01/05 07:21:33;;;;;;;25.30;4.97;;;3.90;99.90;;;;;;5073118;28;20033;-78
2022/01/05 07:24:03;;;;;;;23.48;3.35;;;3.90;99.90;;;;;;5072998;28;20059;-77
2022/01/05 07:26:29;;;;;;;26.52;3.88;;;4.00;99.90;;;;;;5055057;28;20036;-77
2022/01/05 07:28:55;;;;;;;23.25;3.63;;;4.10;99.90;;;;;;5072969;28;20028;-78
2022/01/05 07:31:21;;;;;;;26.92;3.72;;;4.20;99.90;;;;;;5072959;28;20516;-78
2022/01/05 07:33:47;;;;;;;24.45;4.57;;;4.30;99.90;;;;;;5072965;28;20085;-79
2022/01/05 07:36:12;;;;;;;19.52;2.70;;;4.40;99.90;;;;;;5072675;28;20075;-78
2022/01/05 07:38:38;;;;;;;16.92;3.78;;;4.40;99.90;;;;;;5072839;28;20028;-78
2022/01/05 07:41:04;;;;;;;17.20;3.58;;;4.40;99.90;;;;;;5071560;28;20496;-78
2022/01/05 07:43:30;;;;;;;23.10;3.35;;;4.50;99.90;;;;;;5071705;28;20041;-76
2022/01/05 07:45:55;;;;;;;18.25;4.22;;;4.50;99.90;;;;;;5072688;28;20143;-77
2022/01/05 07:48:21;;;;;;;23.77;3.35;;;4.60;99.90;;;;;;5071415;28;20036;-77
2022/01/05 07:50:47;;;;;;;20.27;3.88;;;4.70;99.90;;;;;;5071488;28;20079;-78
2022/01/05 07:53:13;;;;;;;19.58;3.28;;;4.60;99.90;;;;;;5072539;28;20028;-75
2022/01/05 07:55:38;;;;;;;21.40;3.75;;;4.70;99.90;;;;;;5071418;28;20526;-78
2022/01/05 07:58:05;;;;;;;23.08;3.92;;;4.70;99.90;;;;;;5072679;28;20054;-79
2022/01/05 08:00:31;;;;;;;16.60;3.03;;;4.70;99.90;;;;;;5072870;28;20158;-78
2022/01/05 08:02:57;;;;;;;16.25;3.38;;;4.80;99.90;;;;;;5072140;28;20151;-78
2022/01/05 08:05:23;;;;;;;18.83;3.28;;;4.80;99.90;;;;;;5072588;28;20027;-78
2022/01/05 08:07:49;;;;;;;33.45;3.55;;;4.80;99.90;;;;;;5072426;28;20052;-76
2022/01/05 08:10:14;;;;;;;19.10;4.25;;;4.80;99.90;;;;;;5072639;28;20400;-77
2022/01/05 08:12:41;;;;;;;17.77;3.40;;;4.90;99.90;;;;;;5072459;28;20058;-76
2022/01/05 08:15:09;;;;;;;22.35;3.28;;;4.90;99.90;;;;;;5072222;28;20017;-74
2022/01/05 08:17:35;;;;;;;28.55;4.53;;;4.90;99.90;;;;;;5072553;28;20377;-77
2022/01/05 08:20:03;;;;;;;14.65;3.08;;;4.90;99.90;;;;;;5072285;28;20025;-78
2022/01/05 08:22:28;;;;;;;22.27;3.42;;;4.90;99.90;;;;;;5072303;28;20037;-76
2022/01/05 08:24:54;;;;;;;10.05;3.08;;;4.90;99.90;;;;;;5054333;28;20031;-77
2022/01/05 08:27:20;;;;;;;22.73;3.33;;;5.00;99.90;;;;;;5072330;28;20033;-78
2022/01/05 08:29:45;;;;;;;25.25;5.22;;;5.00;99.90;;;;;;5071145;28;20040;-76
2022/01/05 08:32:11;;;;;;;32.45;3.97;;;5.00;99.90;;;;;;5072463;28;20025;-77
2022/01/05 08:34:37;;;;;;;19.55;4.18;;;5.10;99.90;;;;;;5075763;28;20099;-79
2022/01/05 08:37:03;;;;;;;19.05;3.78;;;5.10;99.90;;;;;;5075995;28;20035;-76
2022/01/05 08:39:28;;;;;;;18.33;3.38;;;5.20;99.90;;;;;;5075112;28;20111;-76
2022/01/05 08:41:54;;;;;;;25.52;4.93;;;5.20;99.90;;;;;;5076179;28;20055;-76
2022/01/05 08:44:20;;;;;;;18.42;3.00;;;5.20;99.90;;;;;;5075848;28;20032;-77
2022/01/05 08:46:46;;;;;;;22.38;3.38;;;5.20;99.90;;;;;;5074854;28;20433;-76
2022/01/05 08:49:11;;;;;;;20.20;3.92;;;5.20;99.90;;;;;;5075574;28;20380;-77
2022/01/05 08:51:38;;;;;;;22.17;4.53;;;5.20;99.90;;;;;;5075952;28;20025;-77
2022/01/05 08:54:05;;;;;;;20.75;4.18;;;5.30;99.90;;;;;;5075630;28;20085;-78
2022/01/05 08:56:31;;;;;;;20.25;3.20;;;5.30;99.90;;;;;;5075970;28;20021;-77
2022/01/05 08:58:56;;;;;;;18.15;3.63;;;5.30;99.90;;;;;;5074187;28;20044;-76
2022/01/05 09:01:23;;;;;;;30.45;4.80;;;5.20;99.90;;;;;;5075919;28;20120;-78
2022/01/05 09:03:52;;;;;;;21.10;3.80;;;5.20;99.90;;;;;;5075172;28;20101;-78
2022/01/05 09:06:18;;;;;;;18.58;3.03;;;5.20;99.90;;;;;;5075745;28;20025;-78
2022/01/05 09:08:44;;;;;;;25.88;3.72;;;5.20;99.90;;;;;;5074095;28;20469;-78
2022/01/05 09:11:09;;;;;;;18.08;3.60;;;5.20;99.90;;;;;;5075452;28;20032;-78
2022/01/05 09:13:35;;;;;;;32.70;4.63;;;5.20;99.90;;;;;;5075297;28;20105;-78
2022/01/05 09:16:01;;;;;;;21.05;4.00;;;5.20;99.90;;;;;;5074254;28;20102;-78
2022/01/05 09:18:28;;;;;;;19.15;3.80;;;5.30;99.90;;;;;;5075026;28;20278;-78
2022/01/05 09:20:54;;;;;;;20.15;3.65;;;5.20;99.90;;;;;;5075216;28;20037;-78
2022/01/05 09:23:19;;;;;;;20.63;4.07;;;5.20;99.90;;;;;;5073936;28;20043;-77
2022/01/05 09:25:45;;;;;;;24.63;3.50;;;5.30;99.90;;;;;;5075291;28;20028;-78
2022/01/05 09:28:11;;;;;;;24.08;3.25;;;5.30;99.90;;;;;;5075038;28;20024;-77
2022/01/05 09:30:37;;;;;;;25.23;4.45;;;5.30;99.90;;;;;;5075286;28;20032;-77
2022/01/05 09:33:02;;;;;;;28.42;3.63;;;5.30;99.90;;;;;;5073542;28;20028;-77
2022/01/05 09:35:28;;;;;;;21.02;4.00;;;5.30;99.90;;;;;;5075220;28;20496;-75
2022/01/05 09:38:07;;;;;;;26.67;3.40;;;5.40;99.90;;;;;;5075114;28;20077;-77
2022/01/05 09:43:17;;;;;;;26.95;4.05;;;5.50;99.90;;;;;;5074791;28;20040;-78
2022/01/05 09:46:05;;;;;;;30.88;3.78;;;5.40;99.90;;;;;;5074017;28;20035;-78
2022/01/05 09:48:46;;;;;;;20.20;2.88;;;5.50;99.90;;;;;;5074532;28;20040;-78
2022/01/05 09:51:17;;;;;;;25.10;4.38;;;5.60;99.90;;;;;;5074809;28;20263;-77
2022/01/05 09:53:43;;;;;;;19.45;3.90;;;5.70;99.90;;;;;;5074753;28;20036;-77
2022/01/05 09:56:09;;;;;;;23.98;4.10;;;6.00;99.90;;;;;;5074727;28;20028;-78
2022/01/05 09:58:36;;;;;;;16.88;2.42;;;6.00;99.90;;;;;;5074854;28;20383;-78
2022/01/05 10:01:04;;;;;;;30.65;3.65;;;6.00;99.90;;;;;;5073061;28;20024;-74
2022/01/05 10:03:30;;;;;;;17.60;3.00;;;6.00;99.90;;;;;;5074475;28;20029;-77
2022/01/05 10:05:56;;;;;;;17.92;3.65;;;6.00;99.90;;;;;;5074299;28;20036;-77
2022/01/05 10:08:22;;;;;;;17.50;3.28;;;6.00;99.90;;;;;;5073020;28;20039;-78
2022/01/05 10:10:49;;;;;;;25.15;4.40;;;6.00;99.90;;;;;;5056506;28;20028;-78
2022/01/05 10:13:15;;;;;;;23.75;3.47;;;6.00;99.90;;;;;;5074440;28;20040;-78
2022/01/05 10:15:41;;;;;;;28.55;3.45;;;6.10;99.90;;;;;;5074087;28;20086;-80
2022/01/05 10:18:15;;;;;;;26.13;3.72;;;6.10;99.90;;;;;;5074137;28;20016;-81
2022/01/05 10:21:02;;;;;;;19.90;4.63;;;6.10;99.90;;;;;;5074442;28;20047;-79
2022/01/05 10:23:45;;;;;;;29.75;3.67;;;6.20;99.90;;;;;;5074159;28;20056;-79
2022/01/05 10:26:17;;;;;;;18.75;3.47;;;6.10;99.90;;;;;;5073768;28;20035;-80
2022/01/05 10:28:45;;;;;;;15.70;3.55;;;6.10;99.90;;;;;;5074072;28;20517;-79
2022/01/05 10:31:19;;;;;;;26.48;6.43;;;6.20;99.90;;;;;;5073661;28;20020;-76
2022/01/05 10:33:45;;;;;;;26.38;5.97;;;6.10;99.90;;;;;;5074045;28;20078;-78
2022/01/05 10:36:11;;;;;;;16.13;3.65;;;6.20;99.90;;;;;;5073866;28;20025;-79
2022/01/05 10:38:37;;;;;;;23.17;4.07;;;6.20;99.90;;;;;;5072665;28;20055;-80
2022/01/05 10:41:20;;;;;;;23.13;3.67;;;6.20;99.90;;;;;;5073654;28;20108;-79
2022/01/05 10:44:15;;;;;;;22.85;4.57;;;6.20;99.90;;;;;;5073800;28;20032;-79
2022/01/05 10:46:52;;;;;;;19.17;4.50;;;6.20;99.90;;;;;;5073463;28;20059;-80
2022/01/05 10:49:33;;;;;;;14.13;3.38;;;6.20;99.90;;;;;;5073957;28;20058;-78
2022/01/05 10:52:20;;;;;;;27.08;3.95;;;6.20;99.90;;;;;;5073395;28;20052;-80
2022/01/05 10:54:47;;;;;;;19.67;3.13;;;6.20;99.90;;;;;;5072221;28;20048;-79
2022/01/05 10:57:13;;;;;;;26.98;4.57;;;6.20;99.90;;;;;;5073264;28;20483;-80
2022/01/05 10:59:44;;;;;;;24.38;3.15;;;6.20;99.90;;;;;;5073156;28;20043;-79
2022/01/05 11:02:21;;;;;;;32.13;4.75;;;6.10;99.90;;;;;;5073313;28;20025;-79
2022/01/05 11:04:47;;;;;;;21.45;3.40;;;6.20;99.90;;;;;;5073249;28;20040;-80
2022/01/05 11:07:22;;;;;;;23.42;5.03;;;6.20;99.90;;;;;;5073438;28;20074;-80
2022/01/05 11:09:57;;;;;;;17.42;3.08;;;6.40;99.90;;;;;;5073237;28;20036;-80
2022/01/05 11:13:04;;;;;;;24.73;4.43;;;6.50;99.90;;;;;;5073093;28;20052;-79
2022/01/05 11:15:34;;;;;;;20.10;3.30;;;6.50;99.90;;;;;;5082780;28;20037;-79
2022/01/05 11:18:18;;;;;;;24.02;4.38;;;6.50;99.90;;;;;;5073454;28;20031;-78
2022/01/05 11:20:55;;;;;;;19.30;3.38;;;6.50;99.90;;;;;;5071674;28;20401;-79
2022/01/05 11:23:22;;;;;;;19.48;3.10;;;6.50;99.90;;;;;;5073005;28;20040;-78
2022/01/05 11:25:49;;;;;;;22.33;2.85;;;6.50;99.90;;;;;;5072894;28;20670;-77
2022/01/05 11:28:17;;;;;;;11.10;2.53;;;6.50;99.90;;;;;;5072851;28;20024;-78
2022/01/05 11:30:44;;;;;;;12.95;3.10;;;6.50;99.90;;;;;;5072696;28;20029;-78
2022/01/05 11:33:11;;;;;;;25.80;4.00;;;6.60;99.90;;;;;;5072796;28;20056;-78
2022/01/05 11:35:37;;;;;;;22.63;3.22;;;6.50;99.90;;;;;;5073013;28;20473;-77
2022/01/05 11:38:04;;;;;;;28.33;4.47;;;6.50;99.90;;;;;;5072862;28;20020;-77
2022/01/05 11:40:31;;;;;;;28.73;3.25;;;6.40;99.90;;;;;;5071557;28;20528;-76
2022/01/05 11:43:07;;;;;;;22.80;4.35;;;6.50;99.90;;;;;;5072508;28;20055;-79
2022/01/05 11:45:47;;;;;;;14.52;2.67;;;6.50;99.90;;;;;;5071561;28;20039;-81
2022/01/05 11:48:27;;;;;;;9.73;2.85;;;6.50;99.90;;;;;;5072678;28;20078;-80
2022/01/05 11:50:56;;;;;;;16.58;3.30;;;6.60;99.90;;;;;;5072883;28;20044;-77
2022/01/05 11:53:43;;;;;;;19.83;3.33;;;6.60;99.90;;;;;;5072671;28;20032;-78
2022/01/05 11:56:21;;;;;;;12.45;2.30;;;6.80;99.90;;;;;;5072489;28;20428;-78
2022/01/05 11:58:53;;;;;;;17.60;3.28;;;7.10;99.90;;;;;;5072317;28;20059;-78
2022/01/05 12:01:20;;;;;;;11.73;2.58;;;7.70;99.90;;;;;;5072551;28;20373;-79
2022/01/05 12:03:56;;;;;;;13.43;2.90;;;8.20;99.90;;;;;;5072400;28;20485;-78
2022/01/05 12:06:24;;;;;;;17.20;3.45;;;8.30;99.90;;;;;;5072565;28;20028;-79
2022/01/05 12:08:55;;;;;;;22.77;3.53;;;8.80;99.90;;;;;;5075451;28;20089;-80
2022/01/05 12:11:35;;;;;;;19.73;3.38;;;9.10;99.90;;;;;;5076660;28;20094;-79
2022/01/05 12:14:06;;;;;;;16.90;2.80;;;9.10;99.90;;;;;;5075348;28;20040;-79
2022/01/05 12:16:50;;;;;;;;;;;9.60;99.90;;;;;;5077074;28;20028;-79
2022/01/05 12:19:17;;;;;;;7.80;1.67;;;9.90;99.90;;;;;;5076356;28;19912;-77
2022/01/05 12:21:46;;;;;;;18.13;3.72;;;9.40;99.90;;;;;;5075114;28;20552;-78
2022/01/05 12:24:13;;;;;;;11.43;2.90;;;9.30;99.90;;;;;;5074878;28;20028;-79
2022/01/05 12:26:39;;;;;;;18.25;3.00;;;9.40;99.90;;;;;;5076170;28;20032;-77
2022/01/05 12:29:05;;;;;;;13.13;3.30;;;9.90;99.90;;;;;;5076124;28;20027;-79
2022/01/05 12:31:54;;;;;;;14.43;2.97;;;9.80;99.90;;;;;;5076284;28;20098;-78
2022/01/05 12:34:55;;;;;;;18.48;3.92;;;9.90;99.90;;;;;;5076003;28;20115;-77
2022/01/05 12:37:41;;;;;;;14.25;3.60;;;10.00;99.90;;;;;;5076054;28;20036;-79
2022/01/05 12:40:43;;;;;;;21.08;4.22;;;10.00;99.90;;;;;;5076202;28;20028;-79
2022/01/05 12:43:08;;;;;;;17.88;4.57;;;9.50;99.90;;;;;;5075985;28;20048;-78
2022/01/05 12:45:57;;;;;;;16.65;3.08;;;9.90;99.90;;;;;;5076010;28;20016;-79
2022/01/05 12:48:35;;;;;;;17.52;3.90;;;9.90;99.90;;;;;;5074462;28;20115;-78
2022/01/05 12:54:08;;;;;;;13.40;3.50;;;9.30;99.90;;;;;;5075855;28;20041;-79
2022/01/05 12:56:46;;;;;;;19.27;3.88;;;9.30;99.90;;;;;;5075460;28;20047;-79
2022/01/05 12:59:21;;;;;;;20.67;3.80;;;9.10;99.90;;;;;;5074481;28;20389;-78